sensor_id;sensor_type;location;lat;lon;timestamp;pressure;altitude;pressure_sealevel;temperature;humidity
75549;BME280;64133;56.002;37.208;2024-01-27T00:03:25;98910.77;;;-4.19;84.27
75549;BME280;64133;56.002;37.208;2024-01-27T00:08:30;98922.25;;;-4.16;84.10
75549;BME280;64133;56.002;37.208;2024-01-27T00:13:35;98913.03;;;-4.09;83.58
75549;BME280;64133;56.002;37.208;2024-01-27T00:18:40;98925.27;;;-4.17;83.81
75549;BME280;64133;56.002;37.208;2024-01-27T00:23:45;98924.44;;;-4.17;83.76
75549;BME280;64133;56.002;37.208;2024-01-27T00:28:50;98918.84;;;-4.17;82.98
75549;BME280;64133;56.002;37.208;2024-01-27T00:33:55;98930.78;;;-4.01;83.50
75549;BME280;64133;56.002;37.208;2024-01-27T00:38:58;98932.63;;;-4.19;83.40
75549;BME280;64133;56.002;37.208;2024-01-27T00:44:03;98925.05;;;-4.24;82.99
75549;BME280;64133;56.002;37.208;2024-01-27T00:49:08;98937.31;;;-4.19;83.36
75549;BME280;64133;56.002;37.208;2024-01-27T00:54:13;98935.97;;;-4.31;83.41
75549;BME280;64133;56.002;37.208;2024-01-27T00:59:18;98936.01;;;-4.17;83.42
75549;BME280;64133;56.002;37.208;2024-01-27T01:04:23;98933.16;;;-4.08;83.33
75549;BME280;64133;56.002;37.208;2024-01-27T01:09:28;98929.89;;;-4.13;83.68
75549;BME280;64133;56.002;37.208;2024-01-27T01:14:33;98932.58;;;-4.33;83.09
75549;BME280;64133;56.002;37.208;2024-01-27T01:19:37;98934.87;;;-4.23;83.11
75549;BME280;64133;56.002;37.208;2024-01-27T01:24:40;98942.30;;;-4.13;83.62
75549;BME280;64133;56.002;37.208;2024-01-27T01:29:45;98937.45;;;-4.23;83.86
75549;BME280;64133;56.002;37.208;2024-01-27T01:34:50;98942.37;;;-4.16;83.09
75549;BME280;64133;56.002;37.208;2024-01-27T01:39:55;98943.17;;;-4.28;83.60
75549;BME280;64133;56.002;37.208;2024-01-27T01:45:00;98943.86;;;-4.22;83.64
75549;BME280;64133;56.002;37.208;2024-01-27T01:50:07;98940.42;;;-4.08;83.23
75549;BME280;64133;56.002;37.208;2024-01-27T01:55:12;98942.70;;;-4.26;83.56
75549;BME280;64133;56.002;37.208;2024-01-27T02:00:18;98941.54;;;-4.16;83.48
75549;BME280;64133;56.002;37.208;2024-01-27T02:05:22;98943.94;;;-4.25;83.32
75549;BME280;64133;56.002;37.208;2024-01-27T02:10:27;98948.98;;;-4.07;83.73
75549;BME280;64133;56.002;37.208;2024-01-27T02:15:31;98954.79;;;-4.15;83.39
75549;BME280;64133;56.002;37.208;2024-01-27T02:20:36;98957.45;;;-4.03;83.09
75549;BME280;64133;56.002;37.208;2024-01-27T02:25:41;98963.30;;;-4.28;83.29
75549;BME280;64133;56.002;37.208;2024-01-27T02:30:46;98963.55;;;-4.22;83.07
75549;BME280;64133;56.002;37.208;2024-01-27T02:35:51;98970.04;;;-4.24;83.62
75549;BME280;64133;56.002;37.208;2024-01-27T02:40:56;98972.22;;;-4.25;83.32
75549;BME280;64133;56.002;37.208;2024-01-27T02:46:01;98977.49;;;-4.30;83.31
75549;BME280;64133;56.002;37.208;2024-01-27T02:51:06;98981.30;;;-4.28;83.32
75549;BME280;64133;56.002;37.208;2024-01-27T02:56:11;98980.45;;;-4.28;84.04
75549;BME280;64133;56.002;37.208;2024-01-27T03:01:16;98986.95;;;-4.32;83.84
75549;BME280;64133;56.002;37.208;2024-01-27T03:06:21;98985.48;;;-4.40;84.18
75549;BME280;64133;56.002;37.208;2024-01-27T03:11:26;98981.16;;;-4.38;83.59
75549;BME280;64133;56.002;37.208;2024-01-27T03:16:31;98992.46;;;-4.44;84.04
75549;BME280;64133;56.002;37.208;2024-01-27T03:21:36;98988.03;;;-4.39;84.20
75549;BME280;64133;56.002;37.208;2024-01-27T03:26:41;98996.72;;;-4.28;83.95
75549;BME280;64133;56.002;37.208;2024-01-27T03:31:45;98994.73;;;-4.18;84.32
75549;BME280;64133;56.002;37.208;2024-01-27T03:36:50;99003.34;;;-4.19;83.52
75549;BME280;64133;56.002;37.208;2024-01-27T03:41:55;99010.58;;;-4.17;83.64
75549;BME280;64133;56.002;37.208;2024-01-27T03:46:59;99012.91;;;-4.10;83.19
75549;BME280;64133;56.002;37.208;2024-01-27T03:52:04;99010.73;;;-4.23;83.69
75549;BME280;64133;56.002;37.208;2024-01-27T03:57:09;99015.48;;;-4.24;83.40
75549;BME280;64133;56.002;37.208;2024-01-27T04:02:14;99020.88;;;-4.34;84.10
75549;BME280;64133;56.002;37.208;2024-01-27T04:07:19;99024.42;;;-4.23;83.94
75549;BME280;64133;56.002;37.208;2024-01-27T04:12:24;99029.10;;;-4.21;83.70
75549;BME280;64133;56.002;37.208;2024-01-27T04:17:29;99025.31;;;-4.39;83.34
75549;BME280;64133;56.002;37.208;2024-01-27T04:22:34;99030.59;;;-4.28;83.74
75549;BME280;64133;56.002;37.208;2024-01-27T04:27:39;99034.95;;;-4.47;83.98
75549;BME280;64133;56.002;37.208;2024-01-27T04:32:44;99039.97;;;-4.11;83.63
75549;BME280;64133;56.002;37.208;2024-01-27T04:37:49;99043.11;;;-4.16;83.73
75549;BME280;64133;56.002;37.208;2024-01-27T04:42:53;99046.46;;;-4.29;83.45
75549;BME280;64133;56.002;37.208;2024-01-27T04:47:58;99053.80;;;-4.15;83.90
75549;BME280;64133;56.002;37.208;2024-01-27T04:53:03;99059.41;;;-4.66;83.41
75549;BME280;64133;56.002;37.208;2024-01-27T04:58:09;99049.02;;;-4.44;84.27
75549;BME280;64133;56.002;37.208;2024-01-27T05:03:14;99065.67;;;-4.42;83.48
75549;BME280;64133;56.002;37.208;2024-01-27T05:08:19;99065.94;;;-4.37;83.40
75549;BME280;64133;56.002;37.208;2024-01-27T05:13:24;99079.80;;;-4.42;83.72
75549;BME280;64133;56.002;37.208;2024-01-27T05:18:29;99089.81;;;-4.48;84.10
75549;BME280;64133;56.002;37.208;2024-01-27T05:23:34;99093.56;;;-4.45;84.07
75549;BME280;64133;56.002;37.208;2024-01-27T05:28:37;99103.28;;;-4.40;83.75
75549;BME280;64133;56.002;37.208;2024-01-27T05:33:42;99100.41;;;-4.11;83.41
75549;BME280;64133;56.002;37.208;2024-01-27T05:38:47;99112.73;;;-4.40;83.62
75549;BME280;64133;56.002;37.208;2024-01-27T05:43:52;99116.66;;;-4.77;82.59
75549;BME280;64133;56.002;37.208;2024-01-27T05:48:57;99124.73;;;-4.41;83.56
75549;BME280;64133;56.002;37.208;2024-01-27T05:54:02;99129.33;;;-4.19;82.98
75549;BME280;64133;56.002;37.208;2024-01-27T05:59:07;99129.20;;;-4.31;82.89
75549;BME280;64133;56.002;37.208;2024-01-27T06:04:12;99135.58;;;-4.46;82.57
75549;BME280;64133;56.002;37.208;2024-01-27T06:09:22;99138.20;;;-4.47;83.02
75549;BME280;64133;56.002;37.208;2024-01-27T06:14:27;99139.55;;;-4.50;82.35
75549;BME280;64133;56.002;37.208;2024-01-27T06:19:32;99130.41;;;-4.62;82.03
75549;BME280;64133;56.002;37.208;2024-01-27T06:24:39;99143.34;;;-4.31;83.46
75549;BME280;64133;56.002;37.208;2024-01-27T06:29:43;99145.30;;;-4.41;82.71
75549;BME280;64133;56.002;37.208;2024-01-27T06:34:47;99143.52;;;-4.55;81.76
75549;BME280;64133;56.002;37.208;2024-01-27T06:39:52;99146.37;;;-4.66;82.49
75549;BME280;64133;56.002;37.208;2024-01-27T06:44:57;99164.02;;;-4.70;82.27
75549;BME280;64133;56.002;37.208;2024-01-27T06:50:02;99167.48;;;-4.90;82.33
75549;BME280;64133;56.002;37.208;2024-01-27T06:55:07;99173.57;;;-4.57;82.82
75549;BME280;64133;56.002;37.208;2024-01-27T07:00:14;99169.40;;;-4.63;82.33
75549;BME280;64133;56.002;37.208;2024-01-27T07:05:19;99176.35;;;-4.31;82.68
75549;BME280;64133;56.002;37.208;2024-01-27T07:10:24;99183.69;;;-3.99;82.04
75549;BME280;64133;56.002;37.208;2024-01-27T07:15:28;99189.78;;;-4.55;81.62
75549;BME280;64133;56.002;37.208;2024-01-27T07:20:32;99201.52;;;-4.45;81.53
75549;BME280;64133;56.002;37.208;2024-01-27T07:25:37;99210.36;;;-4.03;80.91
75549;BME280;64133;56.002;37.208;2024-01-27T07:30:42;99224.75;;;-4.12;81.53
75549;BME280;64133;56.002;37.208;2024-01-27T07:35:47;99227.09;;;-4.03;81.08
75549;BME280;64133;56.002;37.208;2024-01-27T07:40:52;99223.81;;;-3.92;81.12
75549;BME280;64133;56.002;37.208;2024-01-27T07:45:57;99229.39;;;-3.76;80.27
75549;BME280;64133;56.002;37.208;2024-01-27T07:51:02;99229.63;;;-4.37;79.83
75549;BME280;64133;56.002;37.208;2024-01-27T07:56:06;99243.48;;;-4.25;81.08
75549;BME280;64133;56.002;37.208;2024-01-27T08:01:11;99242.41;;;-3.66;81.18
75549;BME280;64133;56.002;37.208;2024-01-27T08:06:17;99257.58;;;-3.71;80.44
75549;BME280;64133;56.002;37.208;2024-01-27T08:11:22;99255.41;;;-3.87;80.23
75549;BME280;64133;56.002;37.208;2024-01-27T08:16:27;99264.09;;;-3.58;79.74
75549;BME280;64133;56.002;37.208;2024-01-27T08:21:31;99271.59;;;-3.99;80.12
75549;BME280;64133;56.002;37.208;2024-01-27T08:26:36;99262.08;;;-3.96;79.79
75549;BME280;64133;56.002;37.208;2024-01-27T08:31:41;99265.30;;;-3.71;79.49
75549;BME280;64133;56.002;37.208;2024-01-27T08:36:45;99266.98;;;-3.87;79.98
75549;BME280;64133;56.002;37.208;2024-01-27T08:41:50;99264.48;;;-3.57;79.61
75549;BME280;64133;56.002;37.208;2024-01-27T08:46:53;99271.97;;;-3.32;78.79
75549;BME280;64133;56.002;37.208;2024-01-27T08:51:58;99269.64;;;-3.57;78.82
75549;BME280;64133;56.002;37.208;2024-01-27T08:57:02;99266.84;;;-3.64;79.04
75549;BME280;64133;56.002;37.208;2024-01-27T09:02:07;99261.70;;;-3.48;78.51
75549;BME280;64133;56.002;37.208;2024-01-27T09:07:12;99266.97;;;-3.52;78.82
75549;BME280;64133;56.002;37.208;2024-01-27T09:12:17;99268.50;;;-3.80;78.98
75549;BME280;64133;56.002;37.208;2024-01-27T09:17:24;99273.90;;;-3.40;79.98
75549;BME280;64133;56.002;37.208;2024-01-27T09:22:29;99277.60;;;-2.88;78.28
75549;BME280;64133;56.002;37.208;2024-01-27T09:27:34;99293.84;;;-3.30;78.46
75549;BME280;64133;56.002;37.208;2024-01-27T09:32:38;99291.14;;;-3.11;79.07
75549;BME280;64133;56.002;37.208;2024-01-27T09:37:42;99301.31;;;-3.21;77.76
75549;BME280;64133;56.002;37.208;2024-01-27T09:42:50;99314.36;;;-2.66;78.72
75549;BME280;64133;56.002;37.208;2024-01-27T09:47:53;99310.71;;;-3.04;77.55
75549;BME280;64133;56.002;37.208;2024-01-27T09:52:58;99308.39;;;-2.98;78.19
75549;BME280;64133;56.002;37.208;2024-01-27T09:58:02;99193.30;;;-3.58;79.03
75549;BME280;64133;56.002;37.208;2024-01-27T10:03:10;99316.70;;;-2.44;77.54
75549;BME280;64133;56.002;37.208;2024-01-27T10:08:17;99317.73;;;-2.79;76.21
75549;BME280;64133;56.002;37.208;2024-01-27T10:13:22;99326.81;;;-3.12;77.38
75549;BME280;64133;56.002;37.208;2024-01-27T10:18:27;99327.70;;;-2.82;77.66
75549;BME280;64133;56.002;37.208;2024-01-27T10:23:38;99328.33;;;-2.59;78.16
75549;BME280;64133;56.002;37.208;2024-01-27T10:28:37;99328.45;;;-2.34;76.42
75549;BME280;64133;56.002;37.208;2024-01-27T10:33:52;99329.97;;;-2.86;75.81
75549;BME280;64133;56.002;37.208;2024-01-27T10:38:56;99341.83;;;-3.11;77.12
75549;BME280;64133;56.002;37.208;2024-01-27T10:44:00;99344.16;;;-3.18;76.81
75549;BME280;64133;56.002;37.208;2024-01-27T10:49:04;99344.53;;;-2.85;77.33
75549;BME280;64133;56.002;37.208;2024-01-27T10:54:08;99347.25;;;-3.06;76.14
75549;BME280;64133;56.002;37.208;2024-01-27T10:59:16;99359.34;;;-2.91;77.07
75549;BME280;64133;56.002;37.208;2024-01-27T11:04:21;99355.92;;;-2.62;77.23
75549;BME280;64133;56.002;37.208;2024-01-27T11:09:28;99358.39;;;-3.05;77.51
75549;BME280;64133;56.002;37.208;2024-01-27T11:14:34;99358.06;;;-2.62;78.39
75549;BME280;64133;56.002;37.208;2024-01-27T11:19:42;99361.84;;;-2.59;76.44
75549;BME280;64133;56.002;37.208;2024-01-27T11:24:47;99367.79;;;-2.71;76.88
75549;BME280;64133;56.002;37.208;2024-01-27T11:30:23;99378.81;;;-2.97;76.94
75549;BME280;64133;56.002;37.208;2024-01-27T11:35:19;99385.25;;;-2.97;78.08
75549;BME280;64133;56.002;37.208;2024-01-27T11:40:24;99393.44;;;-2.67;78.36
75549;BME280;64133;56.002;37.208;2024-01-27T11:45:29;99388.98;;;-2.91;77.30
75549;BME280;64133;56.002;37.208;2024-01-27T11:50:34;99399.16;;;-2.56;77.14
75549;BME280;64133;56.002;37.208;2024-01-27T11:55:41;99405.05;;;-2.83;78.03
75549;BME280;64133;56.002;37.208;2024-01-27T12:00:46;99412.31;;;-2.35;76.71
75549;BME280;64133;56.002;37.208;2024-01-27T12:05:51;99425.97;;;-2.61;76.87
75549;BME280;64133;56.002;37.208;2024-01-27T12:10:56;99427.78;;;-2.81;76.48
75549;BME280;64133;56.002;37.208;2024-01-27T12:16:01;99441.54;;;-3.33;76.30
75549;BME280;64133;56.002;37.208;2024-01-27T12:21:06;99448.08;;;-3.19;77.91
75549;BME280;64133;56.002;37.208;2024-01-27T12:26:13;99457.83;;;-3.14;77.52
75549;BME280;64133;56.002;37.208;2024-01-27T12:31:18;99462.09;;;-3.49;77.39
75549;BME280;64133;56.002;37.208;2024-01-27T12:36:23;99472.05;;;-2.82;78.36
75549;BME280;64133;56.002;37.208;2024-01-27T12:41:45;99476.75;;;-3.15;77.59
75549;BME280;64133;56.002;37.208;2024-01-27T12:46:58;99484.07;;;-3.52;77.91
75549;BME280;64133;56.002;37.208;2024-01-27T12:52:11;99495.06;;;-3.27;78.10
75549;BME280;64133;56.002;37.208;2024-01-27T12:57:16;99498.63;;;-3.51;77.90
75549;BME280;64133;56.002;37.208;2024-01-27T13:02:25;99508.45;;;-3.68;77.99
75549;BME280;64133;56.002;37.208;2024-01-27T13:07:33;99517.03;;;-3.89;78.64
75549;BME280;64133;56.002;37.208;2024-01-27T13:12:38;99519.45;;;-3.62;78.73
75549;BME280;64133;56.002;37.208;2024-01-27T13:17:59;99524.98;;;-3.59;78.67
75549;BME280;64133;56.002;37.208;2024-01-27T13:29:12;99517.55;;;-4.13;77.98
75549;BME280;64133;56.002;37.208;2024-01-27T13:34:19;99555.93;;;-3.83;78.21
75549;BME280;64133;56.002;37.208;2024-01-27T13:44:59;99536.05;;;-4.17;79.02
75549;BME280;64133;56.002;37.208;2024-01-27T13:50:06;99572.41;;;-4.13;78.93
75549;BME280;64133;56.002;37.208;2024-01-27T13:55:12;99572.93;;;-4.42;78.79
75549;BME280;64133;56.002;37.208;2024-01-27T14:00:18;99578.59;;;-4.47;79.55
75549;BME280;64133;56.002;37.208;2024-01-27T14:05:23;99590.48;;;-4.65;79.19
75549;BME280;64133;56.002;37.208;2024-01-27T14:10:31;99583.93;;;-4.85;80.08
75549;BME280;64133;56.002;37.208;2024-01-27T14:15:34;99596.34;;;-4.84;79.44
75549;BME280;64133;56.002;37.208;2024-01-27T14:20:41;99601.62;;;-4.93;79.99
75549;BME280;64133;56.002;37.208;2024-01-27T14:25:49;99600.18;;;-5.11;80.03
75549;BME280;64133;56.002;37.208;2024-01-27T14:30:53;99598.42;;;-5.08;80.66
75549;BME280;64133;56.002;37.208;2024-01-27T14:35:59;99605.82;;;-5.16;80.49
75549;BME280;64133;56.002;37.208;2024-01-27T14:41:04;99603.39;;;-5.27;80.20
75549;BME280;64133;56.002;37.208;2024-01-27T14:46:09;99609.70;;;-5.19;80.42
75549;BME280;64133;56.002;37.208;2024-01-27T14:51:14;99610.86;;;-5.10;80.40
75549;BME280;64133;56.002;37.208;2024-01-27T14:56:19;99618.52;;;-5.37;80.46
75549;BME280;64133;56.002;37.208;2024-01-27T15:01:24;99624.34;;;-5.24;80.39
75549;BME280;64133;56.002;37.208;2024-01-27T15:06:29;99627.37;;;-5.26;80.70
75549;BME280;64133;56.002;37.208;2024-01-27T15:11:34;99630.78;;;-5.27;80.81
75549;BME280;64133;56.002;37.208;2024-01-27T15:16:39;99634.57;;;-5.23;80.60
75549;BME280;64133;56.002;37.208;2024-01-27T15:21:44;99638.98;;;-5.33;80.45
75549;BME280;64133;56.002;37.208;2024-01-27T15:26:50;99640.80;;;-5.41;80.81
75549;BME280;64133;56.002;37.208;2024-01-27T15:31:55;99643.81;;;-5.40;81.05
75549;BME280;64133;56.002;37.208;2024-01-27T15:37:00;99649.81;;;-5.42;81.07
75549;BME280;64133;56.002;37.208;2024-01-27T15:42:05;99656.76;;;-5.50;80.95
75549;BME280;64133;56.002;37.208;2024-01-27T15:47:11;99653.38;;;-5.54;80.96
75549;BME280;64133;56.002;37.208;2024-01-27T15:52:16;99662.56;;;-5.36;81.04
75549;BME280;64133;56.002;37.208;2024-01-27T15:57:21;99667.66;;;-5.33;81.02
75549;BME280;64133;56.002;37.208;2024-01-27T16:02:26;99676.56;;;-5.25;80.72
75549;BME280;64133;56.002;37.208;2024-01-27T16:07:31;99682.69;;;-5.37;80.34
75549;BME280;64133;56.002;37.208;2024-01-27T16:12:36;99693.09;;;-5.48;80.68
75549;BME280;64133;56.002;37.208;2024-01-27T16:17:41;99689.79;;;-5.59;80.09
75549;BME280;64133;56.002;37.208;2024-01-27T16:22:46;99695.38;;;-5.63;80.38
75549;BME280;64133;56.002;37.208;2024-01-27T16:27:51;99696.89;;;-5.45;80.72
75549;BME280;64133;56.002;37.208;2024-01-27T16:32:56;99705.84;;;-5.42;80.62
75549;BME280;64133;56.002;37.208;2024-01-27T16:38:01;99711.22;;;-5.25;80.53
75549;BME280;64133;56.002;37.208;2024-01-27T16:43:06;99718.39;;;-5.19;80.18
75549;BME280;64133;56.002;37.208;2024-01-27T16:48:11;99734.23;;;-5.18;79.83
75549;BME280;64133;56.002;37.208;2024-01-27T16:53:17;99739.78;;;-5.18;79.68
75549;BME280;64133;56.002;37.208;2024-01-27T16:58:22;99751.39;;;-5.23;79.82
75549;BME280;64133;56.002;37.208;2024-01-27T17:03:27;99760.05;;;-5.30;80.07
75549;BME280;64133;56.002;37.208;2024-01-27T17:08:32;99765.65;;;-5.34;79.87
75549;BME280;64133;56.002;37.208;2024-01-27T17:13:37;99762.84;;;-5.12;79.98
75549;BME280;64133;56.002;37.208;2024-01-27T17:18:42;99767.73;;;-5.28;79.97
75549;BME280;64133;56.002;37.208;2024-01-27T17:23:47;99768.44;;;-5.16;79.91
75549;BME280;64133;56.002;37.208;2024-01-27T17:28:52;99760.22;;;-5.08;79.31
75549;BME280;64133;56.002;37.208;2024-01-27T17:33:56;99765.95;;;-5.22;79.62
75549;BME280;64133;56.002;37.208;2024-01-27T17:44:27;99774.11;;;-5.27;79.58
75549;BME280;64133;56.002;37.208;2024-01-27T17:49:32;99779.91;;;-5.08;79.78
75549;BME280;64133;56.002;37.208;2024-01-27T17:54:37;99785.34;;;-4.98;79.42
75549;BME280;64133;56.002;37.208;2024-01-27T17:59:42;99786.86;;;-4.82;79.45
75549;BME280;64133;56.002;37.208;2024-01-27T18:04:47;99789.14;;;-4.92;78.79
75549;BME280;64133;56.002;37.208;2024-01-27T18:09:52;99796.67;;;-4.80;78.95
75549;BME280;64133;56.002;37.208;2024-01-27T18:14:59;99799.36;;;-4.89;79.06
75549;BME280;64133;56.002;37.208;2024-01-27T18:20:05;99800.09;;;-4.77;78.93
75549;BME280;64133;56.002;37.208;2024-01-27T18:25:10;99795.00;;;-4.84;78.69
75549;BME280;64133;56.002;37.208;2024-01-27T18:30:14;99802.03;;;-4.63;78.67
75549;BME280;64133;56.002;37.208;2024-01-27T18:35:19;99811.27;;;-4.82;78.58
75549;BME280;64133;56.002;37.208;2024-01-27T18:40:24;99816.34;;;-4.77;78.26
75549;BME280;64133;56.002;37.208;2024-01-27T18:45:28;99819.28;;;-5.08;79.02
75549;BME280;64133;56.002;37.208;2024-01-27T18:50:33;99829.31;;;-4.88;78.65
75549;BME280;64133;56.002;37.208;2024-01-27T18:55:38;99832.42;;;-4.96;79.32
75549;BME280;64133;56.002;37.208;2024-01-27T19:00:43;99829.66;;;-5.17;79.13
75549;BME280;64133;56.002;37.208;2024-01-27T19:05:48;99845.83;;;-5.10;78.99
75549;BME280;64133;56.002;37.208;2024-01-27T19:10:53;99846.20;;;-5.03;78.89
75549;BME280;64133;56.002;37.208;2024-01-27T19:16:02;99852.81;;;-4.84;79.41
75549;BME280;64133;56.002;37.208;2024-01-27T19:21:08;99860.85;;;-4.73;78.71
75549;BME280;64133;56.002;37.208;2024-01-27T19:26:14;99870.77;;;-4.81;79.03
75549;BME280;64133;56.002;37.208;2024-01-27T19:31:20;99873.14;;;-5.01;79.08
75549;BME280;64133;56.002;37.208;2024-01-27T19:36:25;99867.91;;;-4.91;79.31
75549;BME280;64133;56.002;37.208;2024-01-27T19:41:30;99866.13;;;-4.86;78.90
75549;BME280;64133;56.002;37.208;2024-01-27T19:46:35;99875.86;;;-4.76;79.17
75549;BME280;64133;56.002;37.208;2024-01-27T19:51:44;99876.84;;;-4.86;79.10
75549;BME280;64133;56.002;37.208;2024-01-27T19:56:49;99847.27;;;-5.24;78.99
75549;BME280;64133;56.002;37.208;2024-01-27T20:01:54;99881.66;;;-4.98;79.27
75549;BME280;64133;56.002;37.208;2024-01-27T20:06:59;99888.47;;;-4.94;79.66
75549;BME280;64133;56.002;37.208;2024-01-27T20:12:06;99895.25;;;-4.88;80.00
75549;BME280;64133;56.002;37.208;2024-01-27T20:17:10;99896.74;;;-4.67;79.65
75549;BME280;64133;56.002;37.208;2024-01-27T20:22:16;99897.07;;;-4.59;79.47
75549;BME280;64133;56.002;37.208;2024-01-27T20:27:21;99906.67;;;-4.73;79.11
75549;BME280;64133;56.002;37.208;2024-01-27T20:32:26;99911.78;;;-4.70;79.26
75549;BME280;64133;56.002;37.208;2024-01-27T20:37:31;99913.02;;;-4.65;79.43
75549;BME280;64133;56.002;37.208;2024-01-27T20:42:37;99911.18;;;-4.56;79.05
75549;BME280;64133;56.002;37.208;2024-01-27T20:47:42;99918.84;;;-4.51;79.37
75549;BME280;64133;56.002;37.208;2024-01-27T20:52:47;99915.06;;;-4.57;78.78
75549;BME280;64133;56.002;37.208;2024-01-27T20:57:52;99925.81;;;-4.61;79.58
75549;BME280;64133;56.002;37.208;2024-01-27T21:02:57;99931.95;;;-4.74;78.94
75549;BME280;64133;56.002;37.208;2024-01-27T21:08:02;99943.00;;;-4.67;79.55
75549;BME280;64133;56.002;37.208;2024-01-27T21:13:07;99949.84;;;-4.66;78.81
75549;BME280;64133;56.002;37.208;2024-01-27T21:18:12;99956.70;;;-4.65;79.07
75549;BME280;64133;56.002;37.208;2024-01-27T21:23:17;99950.69;;;-4.64;78.94
75549;BME280;64133;56.002;37.208;2024-01-27T21:28:22;99957.09;;;-4.61;78.97
75549;BME280;64133;56.002;37.208;2024-01-27T21:33:27;99971.78;;;-4.74;78.74
75549;BME280;64133;56.002;37.208;2024-01-27T21:38:32;99968.91;;;-4.46;78.91
75549;BME280;64133;56.002;37.208;2024-01-27T21:43:36;99967.22;;;-4.47;78.98
75549;BME280;64133;56.002;37.208;2024-01-27T21:48:41;99970.12;;;-4.39;78.48
75549;BME280;64133;56.002;37.208;2024-01-27T21:53:46;99974.48;;;-4.48;78.84
75549;BME280;64133;56.002;37.208;2024-01-27T21:58:51;99981.02;;;-4.56;78.46
75549;BME280;64133;56.002;37.208;2024-01-27T22:03:56;99986.28;;;-4.68;78.44
75549;BME280;64133;56.002;37.208;2024-01-27T22:09:02;99991.92;;;-4.76;78.56
75549;BME280;64133;56.002;37.208;2024-01-27T22:14:07;99989.77;;;-4.74;78.95
75549;BME280;64133;56.002;37.208;2024-01-27T22:19:13;99987.66;;;-4.79;79.07
75549;BME280;64133;56.002;37.208;2024-01-27T22:24:16;99990.02;;;-4.56;78.93
75549;BME280;64133;56.002;37.208;2024-01-27T22:29:21;99995.55;;;-4.52;78.68
75549;BME280;64133;56.002;37.208;2024-01-27T22:34:28;99990.78;;;-4.49;78.98
75549;BME280;64133;56.002;37.208;2024-01-27T22:39:33;99999.45;;;-4.57;78.66
75549;BME280;64133;56.002;37.208;2024-01-27T22:44:38;99997.45;;;-4.72;79.00
75549;BME280;64133;56.002;37.208;2024-01-27T22:49:43;99994.96;;;-4.78;78.61
75549;BME280;64133;56.002;37.208;2024-01-27T22:54:48;99988.92;;;-4.76;78.91
75549;BME280;64133;56.002;37.208;2024-01-27T22:59:53;100005.52;;;-4.64;79.46
75549;BME280;64133;56.002;37.208;2024-01-27T23:04:58;100001.67;;;-4.67;78.77
75549;BME280;64133;56.002;37.208;2024-01-27T23:10:03;100009.06;;;-4.77;79.04
75549;BME280;64133;56.002;37.208;2024-01-27T23:15:10;100010.84;;;-4.41;79.42
75549;BME280;64133;56.002;37.208;2024-01-27T23:20:17;100020.33;;;-4.46;78.45
75549;BME280;64133;56.002;37.208;2024-01-27T23:25:20;100020.48;;;-4.60;79.21
75549;BME280;64133;56.002;37.208;2024-01-27T23:30:30;100022.54;;;-4.52;79.24
75549;BME280;64133;56.002;37.208;2024-01-27T23:35:35;100027.58;;;-4.43;78.71
75549;BME280;64133;56.002;37.208;2024-01-27T23:40:43;100033.25;;;-4.54;79.31
75549;BME280;64133;56.002;37.208;2024-01-27T23:45:48;100035.00;;;-4.56;78.92
75549;BME280;64133;56.002;37.208;2024-01-27T23:50:53;100042.75;;;-4.62;79.01
75549;BME280;64133;56.002;37.208;2024-01-27T23:55:58;100048.91;;;-4.33;79.26
